Terminal Aerodrome Forecast
Issued by NWS Rapid City, SD

Home | Current Version | Previous Version | Text Only | Print | Product List | Glossary On
Versions: 1 2 3 4 5 6 7 8 9 10 11 12 13 14 15 16 17 18
000
FTUS43 KUNR 271720
TAFRAP
TAF
KRAP 271720Z 2718/2818 34014G24KT P6SM SCT060 BKN100
     FM280300 30007KT P6SM SCT100 BKN200
     FM281600 33015G25KT P6SM SCT100=

USA.gov is the U.S. government's official web portal to all federal, state and local government web resources and services.